Terminal Aerodrome Forecast
Issued by NWS

Home | Current Version | Previous Version | Text Only | Print | Product List | Glossary On
Versions: 1 2 3 4 5 6 7 8 9 10 11 12 13 14 15 16 17 18 19 20 21 22 23 24
000
FTUS45 KGJT 222341
TAFTEX
TAF
KTEX 222341Z 2300/2324 27010KT P6SM VCSH BKN060 BKN220
     FM230200 14005KT P6SM SCT090
     FM230700 VRB04KT P6SM SCT250
     FM231600 27005KT P6SM SCT250
     FM232000 28010KT P6SM FEW140 BKN220=

USA.gov is the U.S. government's official web portal to all federal, state and local government web resources and services.